Time;durP1;ratioP1;P1;durP2;ratioP2;P2;SDS_P1;SDS_P2;PMS_P1;PMS_P2;Temp;Humidity;BMP_temperature;BMP_pressure;BME280_temperature;BME280_humidity;BME280_pressure;Samples;Min_cycle;Max_cycle;Signal;HPM_P1;HPM_P2
2023/09/11 01:42:54;;;;;;;;;;;18.80;99.90;;;;;;6213860;23;20059;-84
2023/09/11 01:45:21;;;;;;;26.48;18.23;;;18.60;99.90;;;;;;6187871;23;19915;-84
2023/09/11 01:50:24;;;;;;;27.65;18.40;;;18.90;99.90;;;;;;6155196;23;20033;-84
2023/09/11 01:53:01;;;;;;;28.23;18.52;;;18.90;99.90;;;;;;6129499;23;20029;-84
2023/09/11 01:55:34;;;;;;;29.38;18.60;;;18.90;99.90;;;;;;6130265;23;20049;-84
2023/09/11 01:58:18;;;;;;;31.93;18.83;;;18.90;99.90;;;;;;6130509;23;20065;-84
2023/09/11 02:00:58;;;;;;;30.02;18.50;;;18.90;99.90;;;;;;6157131;23;20054;-84
2023/09/11 02:03:49;;;;;;;28.75;17.98;;;18.90;99.90;;;;;;6128987;23;20021;-84
2023/09/11 02:06:33;;;;;;;31.60;19.05;;;18.60;99.90;;;;;;6126959;23;20018;-85
2023/09/11 02:08:59;;;;;;;26.33;18.67;;;18.80;99.90;;;;;;6130249;23;20022;-85
2023/09/11 02:11:48;;;;;;;30.27;18.98;;;18.80;99.90;;;;;;6130816;23;20021;-84
2023/09/11 02:14:46;;;;;;;27.67;19.17;;;18.90;99.90;;;;;;6130952;23;20346;-84
2023/09/11 02:17:24;;;;;;;31.45;19.58;;;18.80;99.90;;;;;;6105225;23;20024;-85
2023/09/11 02:19:55;;;;;;;25.00;17.80;;;18.80;99.90;;;;;;6129362;23;20454;-84
2023/09/11 02:22:40;;;;;;;27.38;18.23;;;18.80;99.90;;;;;;6130657;23;20021;-85
2023/09/11 02:25:06;;;;;;;28.33;17.15;;;18.80;99.90;;;;;;6150777;23;20022;-85
2023/09/11 02:27:47;;;;;;;24.40;17.13;;;18.70;99.90;;;;;;6129697;23;20017;-85
2023/09/11 02:30:34;;;;;;;25.60;17.88;;;18.80;99.90;;;;;;6129907;23;20022;-85
2023/09/11 02:33:08;;;;;;;27.90;18.55;;;18.70;99.90;;;;;;6130699;23;20018;-85
2023/09/11 02:35:34;;;;;;;27.73;16.83;;;18.60;99.90;;;;;;6130227;23;20022;-85
2023/09/11 02:38:15;;;;;;;25.58;17.65;;;18.60;99.90;;;;;;6129233;23;20032;-85
2023/09/11 02:41:01;;;;;;;28.65;17.58;;;18.50;99.90;;;;;;6130561;23;20017;-85
2023/09/11 02:44:20;;;;;;;27.80;17.70;;;18.60;99.90;;;;;;6130741;23;20021;-85
2023/09/11 02:47:07;;;;;;;30.67;18.10;;;18.30;99.90;;;;;;6156651;23;20021;-85
2023/09/11 02:49:45;;;;;;;33.67;19.05;;;18.50;99.90;;;;;;6140642;23;20025;-85
2023/09/11 02:53:16;;;;;;;28.63;18.92;;;18.50;99.90;;;;;;6185147;23;20027;-85
2023/09/11 02:59:43;;;;;;;34.72;18.48;;;18.50;99.90;;;;;;6184976;23;20020;-84
2023/09/11 03:02:14;;;;;;;29.08;18.85;;;18.50;99.90;;;;;;6159647;23;20024;-85
2023/09/11 03:05:01;;;;;;;30.27;18.75;;;18.50;99.90;;;;;;6159280;23;20021;-85
2023/09/11 03:07:42;;;;;;;30.50;19.17;;;18.60;99.90;;;;;;6160034;23;20323;-85
2023/09/11 03:10:28;;;;;;;28.92;18.90;;;18.50;99.90;;;;;;6160199;23;20489;-85
2023/09/11 03:13:03;;;;;;;28.67;18.60;;;18.50;99.90;;;;;;6157335;23;20028;-85
2023/09/11 03:16:19;;;;;;;30.92;19.55;;;18.30;99.90;;;;;;6185478;23;20152;-85
2023/09/11 03:18:48;;;;;;;27.20;18.50;;;18.50;99.90;;;;;;6185874;23;20017;-85
2023/09/11 03:21:14;;;;;;;27.92;19.08;;;18.60;99.90;;;;;;6183229;23;20009;-85
2023/09/11 03:23:54;;;;;;;29.80;19.30;;;18.60;99.90;;;;;;6157080;23;20048;-85
2023/09/11 03:26:40;;;;;;;32.55;20.25;;;18.50;99.90;;;;;;6185440;23;20017;-85
2023/09/11 03:29:18;;;;;;;30.83;19.77;;;18.50;99.90;;;;;;6159757;23;20027;-84
2023/09/11 03:32:04;;;;;;;28.70;20.17;;;18.50;99.90;;;;;;6159385;23;20456;-85
2023/09/11 03:34:38;;;;;;;33.17;19.83;;;18.50;99.90;;;;;;6185628;23;20087;-85
2023/09/11 03:41:59;;;;;;;28.88;19.48;;;18.50;99.90;;;;;;6185006;23;20507;-85
2023/09/11 03:44:24;;;;;;;26.98;19.80;;;18.50;99.90;;;;;;6159328;23;20461;-85
2023/09/11 03:47:49;;;;;;;32.17;19.85;;;18.50;99.90;;;;;;6185996;23;20068;-85
2023/09/11 03:50:27;;;;;;;30.85;20.23;;;18.40;99.90;;;;;;6065911;23;20155;-85
2023/09/11 03:52:53;;;;;;;36.08;19.95;;;18.40;99.90;;;;;;6042060;23;20321;-85
2023/09/11 04:06:16;;;;;;;27.95;20.00;;;18.20;99.90;;;;;;5977073;23;20109;-85
2023/09/11 04:09:05;;;;;;;33.42;20.98;;;17.90;99.90;;;;;;5960994;23;20053;-85
2023/09/11 04:14:37;;;;;;;29.70;20.13;;;18.20;99.90;;;;;;6185159;23;20450;-85
2023/09/11 04:17:45;;;;;;;34.67;20.63;;;18.10;99.90;;;;;;6183969;23;20348;-86
2023/09/11 04:20:29;;;;;;;28.50;20.95;;;18.10;99.90;;;;;;6186035;23;20053;-85
2023/09/11 04:23:03;;;;;;;30.75;20.83;;;18.00;99.90;;;;;;6184996;23;20100;-85
2023/09/11 04:25:47;;;;;;;31.20;20.83;;;18.00;99.90;;;;;;6159105;23;20461;-85
2023/09/11 04:28:13;;;;;;;30.95;20.65;;;18.00;99.90;;;;;;6157491;23;20040;-85
2023/09/11 04:30:44;;;;;;;28.20;18.95;;;18.00;99.90;;;;;;6158158;23;20346;-84
2023/09/11 04:33:12;;;;;;;28.40;21.27;;;17.90;99.90;;;;;;6158185;23;20467;-85
2023/09/11 04:35:52;;;;;;;30.42;21.83;;;17.90;99.90;;;;;;6159051;23;20027;-85
2023/09/11 04:38:24;;;;;;;35.25;22.05;;;17.90;99.90;;;;;;6208948;22;20027;-85
2023/09/11 04:41:45;;;;;;;35.00;22.77;;;17.90;99.90;;;;;;6216107;23;20016;-85
2023/09/11 04:46:56;;;;;;;31.48;22.10;;;17.80;99.90;;;;;;6156085;23;20029;-84
2023/09/11 04:52:32;;;;;;;34.40;23.08;;;17.80;99.90;;;;;;6068760;23;20432;-84
2023/09/11 04:55:13;;;;;;;33.97;21.67;;;17.80;99.90;;;;;;6069924;23;20077;-85
2023/09/11 04:58:00;;;;;;;33.00;20.63;;;17.90;99.90;;;;;;6093209;23;20395;-85
2023/09/11 05:00:29;;;;;;;30.25;20.88;;;17.90;99.90;;;;;;6070320;23;20158;-84
2023/09/11 05:02:55;;;;;;;35.70;21.20;;;17.90;99.90;;;;;;6080450;23;20386;-85
2023/09/11 05:05:20;;;;;;;30.83;20.70;;;17.90;99.90;;;;;;6154997;23;20017;-84
2023/09/11 05:08:39;;;;;;;31.30;20.90;;;17.90;99.90;;;;;;6153451;23;20069;-84
2023/09/11 05:11:20;;;;;;;32.80;21.13;;;17.70;99.90;;;;;;6070103;23;20033;-84
2023/09/11 05:13:57;;;;;;;31.77;20.25;;;17.80;99.90;;;;;;6092815;23;20026;-82
2023/09/11 05:16:23;;;;;;;31.98;20.08;;;17.90;99.90;;;;;;6069893;23;20093;-83
2023/09/11 05:18:48;;;;;;;34.45;20.40;;;18.00;99.90;;;;;;6068532;23;20238;-83
2023/09/11 05:21:14;;;;;;;31.92;20.50;;;17.90;99.90;;;;;;6069296;23;20016;-83
2023/09/11 05:23:42;;;;;;;35.83;20.30;;;18.00;99.90;;;;;;6069401;23;20073;-82
2023/09/11 05:26:11;;;;;;;34.35;21.17;;;18.00;99.90;;;;;;6135331;23;20021;-83
2023/09/11 05:28:37;;;;;;;32.47;20.58;;;18.00;99.90;;;;;;6153224;23;20343;-83
2023/09/11 05:31:02;;;;;;;32.38;19.02;;;18.00;99.90;;;;;;6152617;23;20438;-83
2023/09/11 05:33:28;;;;;;;35.63;20.33;;;18.60;99.90;;;;;;6154469;23;20009;-83
2023/09/11 05:36:09;;;;;;;31.80;20.92;;;18.20;99.90;;;;;;6154378;23;20021;-83
2023/09/11 05:38:41;;;;;;;36.63;20.30;;;18.20;99.90;;;;;;6153117;23;20017;-84
2023/09/11 05:41:06;;;;;;;34.03;21.00;;;18.00;99.90;;;;;;6152716;23;20047;-83
2023/09/11 05:43:51;;;;;;;30.48;19.52;;;18.20;99.90;;;;;;6132074;23;20017;-83
2023/09/11 05:46:24;;;;;;;30.15;20.13;;;18.20;99.90;;;;;;6155477;23;20017;-84
2023/09/11 05:48:53;;;;;;;32.70;19.85;;;18.10;99.90;;;;;;6151537;23;20021;-82
2023/09/11 05:51:43;;;;;;;31.83;19.80;;;18.40;99.90;;;;;;6153374;23;20044;-83
2023/09/11 06:05:05;;;;;;;30.20;18.98;;;18.60;99.90;;;;;;6203718;23;20638;-84
2023/09/11 06:08:17;;;;;;;29.70;19.30;;;18.70;99.90;;;;;;6127720;23;20388;-84
2023/09/11 06:14:24;;;;;;;29.40;18.15;;;18.80;99.90;;;;;;6118178;23;20079;-83
2023/09/11 06:17:23;;;;;;;29.58;17.58;;;19.00;99.90;;;;;;6215328;23;20029;-84
2023/09/11 06:19:57;;;;;;;29.35;18.42;;;19.00;99.90;;;;;;6214814;23;20013;-84
2023/09/11 06:22:32;;;;;;;29.15;17.63;;;19.00;99.90;;;;;;6212481;23;20012;-83
2023/09/11 06:25:13;;;;;;;31.27;17.85;;;19.20;99.90;;;;;;6212642;23;20519;-85
2023/09/11 06:27:41;;;;;;;34.28;17.70;;;19.20;99.90;;;;;;6210598;23;20020;-85
2023/09/11 06:30:25;;;;;;;31.45;17.60;;;19.30;99.90;;;;;;6212315;23;20016;-84
2023/09/11 06:33:09;;;;;;;;;;;19.40;99.90;;;;;;6213087;23;20017;-84
2023/09/11 06:35:35;;;;;;;26.80;17.35;;;19.50;99.90;;;;;;6212838;23;19987;-84
2023/09/11 06:38:16;;;;;;;33.92;18.02;;;19.50;99.90;;;;;;6214258;23;20441;-85
2023/09/11 06:43:16;;;;;;;28.80;17.60;;;19.70;99.90;;;;;;6218732;22;20035;-85
2023/09/11 06:45:41;;;;;;;32.45;17.98;;;19.90;99.90;;;;;;6246058;23;20480;-85
2023/09/11 06:48:11;;;;;;;31.58;17.02;;;19.80;99.90;;;;;;6219679;23;20016;-84
2023/09/11 06:50:38;;;;;;;33.47;17.52;;;19.90;99.90;;;;;;6218345;23;20012;-85
2023/09/11 06:53:06;;;;;;;30.83;17.00;;;20.00;99.90;;;;;;6218795;23;20082;-85
2023/09/11 06:55:45;;;;;;;30.38;17.38;;;20.10;99.90;;;;;;6246884;23;20021;-85
2023/09/11 06:58:12;;;;;;;31.38;17.73;;;20.30;99.90;;;;;;6245761;23;20027;-85
2023/09/11 07:00:52;;;;;;;28.05;16.83;;;20.30;99.90;;;;;;6237309;23;20098;-85
2023/09/11 07:03:19;;;;;;;30.58;16.25;;;20.50;99.90;;;;;;6219851;23;20388;-85
2023/09/11 07:05:45;;;;;;;25.23;16.08;;;20.60;99.90;;;;;;6218352;23;20012;-85
2023/09/11 07:08:14;;;;;;;25.00;16.17;;;20.70;99.90;;;;;;6246428;23;20008;-85
2023/09/11 07:11:04;;;;;;;23.52;16.15;;;20.70;99.90;;;;;;6246578;23;20020;-86
2023/09/11 07:13:42;;;;;;;30.63;17.23;;;20.90;99.90;;;;;;6219704;23;20022;-85
2023/09/11 07:16:25;;;;;;;28.27;16.42;;;21.00;99.90;;;;;;6246562;23;20016;-85
2023/09/11 07:19:11;;;;;;;26.83;16.13;;;21.10;99.90;;;;;;6218350;23;20023;-85
2023/09/11 07:21:37;;;;;;;26.13;16.90;;;21.20;99.90;;;;;;6245132;23;20645;-85
2023/09/11 07:24:39;;;;;;;27.60;17.05;;;21.40;99.90;;;;;;6219406;23;20023;-85
2023/09/11 07:27:05;;;;;;;30.90;16.92;;;21.40;99.90;;;;;;6218033;23;20016;-86
2023/09/11 07:29:45;;;;;;;26.15;16.65;;;21.20;99.90;;;;;;6246376;23;20151;-86
2023/09/11 07:32:23;;;;;;;31.23;17.15;;;21.60;99.90;;;;;;6218417;23;20020;-86
2023/09/11 07:34:48;;;;;;;26.38;17.17;;;21.60;99.90;;;;;;6246250;23;20019;-86
2023/09/11 07:37:14;;;;;;;29.38;16.20;;;21.70;99.90;;;;;;6219074;23;20020;-86
2023/09/11 07:46:38;;;;;;;28.75;17.25;;;22.00;99.90;;;;;;6215531;23;20059;-84
2023/09/11 07:49:06;;;;;;;27.75;17.30;;;22.10;99.90;;;;;;6188685;23;20082;-85
2023/09/11 07:51:47;;;;;;;31.10;18.10;;;22.20;99.90;;;;;;6187917;23;20099;-85
2023/09/11 07:54:21;;;;;;;26.95;16.90;;;22.30;99.90;;;;;;6186715;23;20016;-84
2023/09/11 07:57:05;;;;;;;25.30;16.67;;;22.40;99.90;;;;;;6188097;23;20075;-84
2023/09/11 07:59:39;;;;;;;26.05;17.38;;;22.40;99.90;;;;;;6214132;23;20028;-84
2023/09/11 08:02:05;;;;;;;27.30;17.48;;;22.60;99.90;;;;;;6188007;23;20067;-84
2023/09/11 08:04:42;;;;;;;30.65;17.10;;;22.70;99.90;;;;;;6189062;23;20012;-84
2023/09/11 08:07:39;;;;;;;28.33;16.75;;;22.80;99.90;;;;;;6210150;23;20500;-83
2023/09/11 08:10:05;;;;;;;25.48;16.08;;;22.70;99.90;;;;;;6189135;23;20055;-84
2023/09/11 08:12:40;;;;;;;28.23;15.20;;;22.90;99.90;;;;;;6188427;23;20449;-83
2023/09/11 08:15:14;;;;;;;26.83;16.42;;;23.10;99.90;;;;;;6188090;23;20008;-83
2023/09/11 08:17:40;;;;;;;24.55;15.82;;;23.10;99.90;;;;;;6187724;23;20027;-83
2023/09/11 08:24:01;;;;;;;23.48;15.13;;;23.40;99.90;;;;;;6215251;23;20020;-84
2023/09/11 08:27:12;;;;;;;23.67;15.35;;;23.90;99.90;;;;;;6188987;23;20022;-82
2023/09/11 08:30:01;;;;;;;30.13;15.27;;;23.60;99.90;;;;;;6187505;23;20095;-83
2023/09/11 08:32:51;;;;;;;26.73;15.20;;;23.60;99.90;;;;;;6188999;23;20341;-84
2023/09/11 08:41:58;;;;;;;;;;;;;;;;;;;;;
2023/09/11 08:45:21;;;;;;;26.70;13.65;;;24.30;99.90;;;;;;6179458;23;20020;-84
2023/09/11 08:48:08;;;;;;;24.42;13.23;;;24.20;99.90;;;;;;6187544;23;20016;-81
2023/09/11 08:51:28;;;;;;;22.80;12.85;;;24.50;99.90;;;;;;6186932;23;20027;-83
2023/09/11 08:54:11;;;;;;;23.35;13.90;;;24.60;99.90;;;;;;6040629;23;20361;-84
2023/09/11 08:56:46;;;;;;;19.47;13.13;;;24.70;99.90;;;;;;6039262;23;20023;-85
2023/09/11 08:59:27;;;;;;;23.55;12.55;;;24.70;99.90;;;;;;6040222;23;20014;-85
2023/09/11 09:01:53;;;;;;;21.65;12.07;;;24.90;99.90;;;;;;6121588;23;20322;-84
2023/09/11 09:04:50;;;;;;;23.33;12.07;;;24.90;99.90;;;;;;6187073;23;20012;-84
2023/09/11 09:07:26;;;;;;;18.75;11.00;;;24.90;99.90;;;;;;6188374;23;20021;-85
2023/09/11 09:09:56;;;;;;;18.65;10.85;;;25.20;99.90;;;;;;6188202;23;20020;-79
2023/09/11 09:12:42;;;;;;;21.13;11.65;;;25.30;99.90;;;;;;6187745;23;20016;-82
2023/09/11 09:15:09;;;;;;;22.42;11.32;;;25.40;99.90;;;;;;6188222;23;20092;-84
2023/09/11 09:18:04;;;;;;;21.10;11.15;;;25.50;99.90;;;;;;6184693;23;20032;-84
2023/09/11 09:24:23;;;;;;;22.63;11.43;;;25.90;99.90;;;;;;6093638;23;20026;-84
2023/09/11 09:27:30;;;;;;;19.05;10.73;;;26.00;99.90;;;;;;6090766;23;20346;-84
2023/09/11 09:37:19;;;;;;;20.60;9.65;;;26.40;99.90;;;;;;6069582;23;20026;-85
2023/09/11 10:00:06;;;;;;;19.00;9.30;;;27.20;99.90;;;;;;6094387;23;20486;-83
2023/09/11 17:54:17;;;;;;;16.60;11.07;;;24.30;99.90;;;;;;6214004;23;20026;-84
2023/09/11 18:12:43;;;;;;;19.40;12.68;;;23.70;99.90;;;;;;6209606;23;20027;-84
2023/09/11 18:15:12;;;;;;;19.42;12.75;;;23.60;99.90;;;;;;6187405;23;20040;-85
2023/09/11 18:18:02;;;;;;;20.77;13.55;;;23.50;99.90;;;;;;6203843;23;20066;-85
2023/09/11 18:25:01;;;;;;;21.85;14.52;;;23.20;99.90;;;;;;6212429;23;20011;-84
